Time;durP1;ratioP1;P1;durP2;ratioP2;P2;SDS_P1;SDS_P2;PMS_P1;PMS_P2;Temp;Humidity;BMP_temperature;BMP_pressure;BME280_temperature;BME280_humidity;BME280_pressure;Samples;Min_cycle;Max_cycle;Signal;HPM_P1;HPM_P2
2021/03/07 00:00:16;;;;;;;9.17;7.10;;;1.30;90.20;;;;;;5078202;28;20243;-51
2021/03/07 00:02:42;;;;;;;9.37;7.13;;;1.30;90.20;;;;;;5084428;28;20177;-49
2021/03/07 00:05:09;;;;;;;8.17;6.37;;;1.40;90.10;;;;;;5096108;28;20519;-49
2021/03/07 00:07:36;;;;;;;8.00;6.70;;;1.40;90.30;;;;;;5077557;28;20405;-55
2021/03/07 00:10:04;;;;;;;9.37;6.70;;;1.30;90.20;;;;;;5079647;28;20920;-51
2021/03/07 00:12:29;;;;;;;9.13;6.83;;;1.20;90.30;;;;;;5097030;28;20432;-51
2021/03/07 00:14:55;;;;;;;7.73;6.53;;;1.10;90.50;;;;;;5097758;28;20481;-50
2021/03/07 00:17:20;;;;;;;9.37;7.27;;;1.10;90.60;;;;;;5079608;28;20182;-56
2021/03/07 00:19:46;;;;;;;11.33;7.33;;;1.10;90.60;;;;;;5076943;28;20200;-52
2021/03/07 00:22:11;;;;;;;11.20;6.83;;;1.10;90.60;;;;;;5077099;28;20182;-55
2021/03/07 00:24:37;;;;;;;8.13;6.57;;;1.10;91.00;;;;;;5078004;28;20174;-49
2021/03/07 00:27:02;;;;;;;10.47;7.03;;;1.00;90.50;;;;;;5087736;28;20527;-53
2021/03/07 00:29:28;;;;;;;9.60;6.63;;;1.10;90.40;;;;;;5090709;28;20178;-51
2021/03/07 00:31:54;;;;;;;10.30;7.30;;;1.00;90.40;;;;;;5086879;28;20661;-52
2021/03/07 00:34:20;;;;;;;9.50;6.87;;;1.00;90.70;;;;;;5097823;28;20412;-48
2021/03/07 00:36:45;;;;;;;8.53;6.73;;;1.00;90.90;;;;;;5097845;28;20558;-51
2021/03/07 00:39:11;;;;;;;9.03;6.70;;;1.00;90.90;;;;;;5097858;28;20174;-51
2021/03/07 00:41:37;;;;;;;10.47;6.83;;;1.00;90.90;;;;;;5096681;28;20174;-51
2021/03/07 00:44:08;;;;;;;9.30;6.83;;;1.00;91.10;;;;;;5097206;28;20412;-48
2021/03/07 00:46:35;;;;;;;7.93;6.50;;;1.00;91.00;;;;;;5097277;28;20623;-48
2021/03/07 00:49:00;;;;;;;8.47;6.60;;;1.00;91.00;;;;;;5096849;28;20416;-51
2021/03/07 00:51:26;;;;;;;9.07;6.63;;;0.80;91.00;;;;;;5096779;28;20474;-48
2021/03/07 00:53:51;;;;;;;10.20;6.07;;;0.80;91.40;;;;;;5097942;28;20170;-51
2021/03/07 00:56:17;;;;;;;7.97;6.20;;;0.70;91.30;;;;;;5097460;28;20198;-48
2021/03/07 00:58:43;;;;;;;7.73;5.57;;;0.80;91.40;;;;;;5096315;28;20170;-48
2021/03/07 01:01:08;;;;;;;8.43;6.43;;;0.80;91.40;;;;;;5095510;28;20246;-49
2021/03/07 01:03:34;;;;;;;7.87;6.10;;;0.80;91.30;;;;;;5096229;28;20178;-51
2021/03/07 01:05:59;;;;;;;6.90;5.93;;;0.90;91.60;;;;;;5096620;28;20211;-52
2021/03/07 01:08:25;;;;;;;8.53;5.60;;;0.90;91.70;;;;;;5097163;28;20166;-55
2021/03/07 01:10:50;;;;;;;8.37;5.97;;;0.80;92.00;;;;;;5097148;28;20201;-51
2021/03/07 01:13:17;;;;;;;7.47;5.77;;;0.90;92.10;;;;;;5097137;28;20174;-53
2021/03/07 01:15:43;;;;;;;6.90;5.60;;;0.90;92.10;;;;;;5096434;28;20193;-53
2021/03/07 01:18:09;;;;;;;6.37;5.17;;;0.90;92.20;;;;;;5096266;28;20899;-48
2021/03/07 01:20:38;;;;;;;7.23;5.83;;;0.90;92.30;;;;;;5096557;28;20625;-48
2021/03/07 01:23:03;;;;;;;9.97;5.80;;;0.90;92.30;;;;;;5095864;28;20435;-48
2021/03/07 01:25:31;;;;;;;7.50;6.40;;;0.90;92.30;;;;;;5096725;28;20807;-51
2021/03/07 01:27:58;;;;;;;7.90;6.13;;;0.80;92.50;;;;;;5096596;28;20200;-49
2021/03/07 01:30:24;;;;;;;7.50;5.90;;;0.80;92.60;;;;;;5097535;28;20443;-54
2021/03/07 01:32:50;;;;;;;7.77;5.87;;;0.80;92.60;;;;;;5095488;28;20404;-50
2021/03/07 01:35:16;;;;;;;9.10;6.57;;;0.80;92.70;;;;;;5096208;28;20497;-48
2021/03/07 01:37:42;;;;;;;7.37;5.70;;;0.70;92.90;;;;;;5095523;28;20162;-48
2021/03/07 01:40:11;;;;;;;6.97;5.67;;;0.80;93.00;;;;;;5097756;28;20411;-53
2021/03/07 01:42:37;;;;;;;8.23;6.10;;;0.60;93.20;;;;;;5096202;28;20534;-53
2021/03/07 01:45:04;;;;;;;7.57;5.80;;;0.60;93.20;;;;;;5095729;28;20432;-53
2021/03/07 01:47:32;;;;;;;7.47;5.53;;;0.60;93.40;;;;;;5097117;28;20404;-48
2021/03/07 01:49:59;;;;;;;9.23;5.90;;;0.70;93.30;;;;;;5097069;28;20503;-53
2021/03/07 01:52:25;;;;;;;7.20;5.47;;;0.70;93.40;;;;;;5095344;28;20414;-51
2021/03/07 01:54:51;;;;;;;7.50;5.83;;;0.70;93.50;;;;;;5095208;28;20435;-48
2021/03/07 01:57:19;;;;;;;7.10;5.50;;;0.60;93.60;;;;;;5095579;28;20170;-51
2021/03/07 01:59:48;;;;;;;6.73;5.53;;;0.60;93.60;;;;;;5095759;28;20404;-54
2021/03/07 02:02:14;;;;;;;9.03;6.27;;;0.60;93.90;;;;;;5095614;28;20407;-53
2021/03/07 02:04:40;;;;;;;7.87;5.63;;;0.50;93.80;;;;;;5095224;28;20403;-51
2021/03/07 02:07:06;;;;;;;7.67;5.70;;;0.50;93.90;;;;;;5096430;28;20915;-53
2021/03/07 02:09:32;;;;;;;7.23;5.93;;;0.50;94.00;;;;;;5095183;28;20181;-54
2021/03/07 02:11:58;;;;;;;8.70;5.80;;;0.40;94.10;;;;;;5094977;28;20184;-49
2021/03/07 02:14:28;;;;;;;7.80;6.10;;;0.40;94.20;;;;;;5093808;28;20403;-50
2021/03/07 02:16:53;;;;;;;7.70;5.90;;;0.40;94.30;;;;;;5094851;28;21017;-49
2021/03/07 02:19:25;;;;;;;7.07;5.30;;;0.40;94.40;;;;;;5095712;28;20490;-52
2021/03/07 02:21:55;;;;;;;8.40;5.80;;;0.40;94.30;;;;;;5095715;28;20657;-53
2021/03/07 02:24:21;;;;;;;8.70;5.80;;;0.40;94.30;;;;;;5095328;28;20416;-48
2021/03/07 02:26:49;;;;;;;7.60;5.73;;;0.40;94.40;;;;;;5095882;28;20400;-52
2021/03/07 02:29:16;;;;;;;7.07;5.67;;;0.40;94.40;;;;;;5095948;28;20193;-50
2021/03/07 02:31:46;;;;;;;7.50;5.57;;;0.40;94.50;;;;;;5095692;28;20443;-53
2021/03/07 02:34:14;;;;;;;7.43;5.70;;;0.40;94.40;;;;;;5095886;28;20775;-53
2021/03/07 02:36:49;;;;;;;6.97;5.23;;;0.30;94.20;;;;;;5094048;28;20435;-54
2021/03/07 02:39:16;;;;;;;7.77;5.37;;;0.30;93.90;;;;;;5094942;28;20424;-48
2021/03/07 02:41:43;;;;;;;7.13;5.67;;;0.40;93.90;;;;;;5094626;28;20461;-56
2021/03/07 02:44:13;;;;;;;7.40;5.67;;;0.40;93.80;;;;;;5094995;28;20404;-51
2021/03/07 02:46:40;;;;;;;7.87;5.80;;;0.40;93.70;;;;;;5094465;28;20433;-55
2021/03/07 02:49:10;;;;;;;7.77;5.83;;;0.30;93.80;;;;;;5096012;28;20416;-56
2021/03/07 02:51:37;;;;;;;8.10;5.47;;;0.40;94.00;;;;;;5093689;28;20490;-53
2021/03/07 02:54:06;;;;;;;7.10;5.63;;;0.30;94.20;;;;;;5094905;28;20429;-54
2021/03/07 02:56:34;;;;;;;6.80;5.60;;;0.30;94.30;;;;;;5095012;28;20419;-53
2021/03/07 02:59:05;;;;;;;7.50;5.50;;;0.30;94.40;;;;;;5095435;28;20403;-48
2021/03/07 03:01:32;;;;;;;8.17;5.30;;;0.20;94.40;;;;;;5094351;28;20424;-48
2021/03/07 03:04:00;;;;;;;7.17;5.60;;;0.20;94.40;;;;;;5095268;28;20413;-52
2021/03/07 03:06:27;;;;;;;7.10;5.50;;;0.20;94.60;;;;;;5094739;28;20432;-57
2021/03/07 03:08:55;;;;;;;6.80;5.27;;;0.20;94.60;;;;;;5094517;28;20415;-51
2021/03/07 03:11:24;;;;;;;7.77;5.57;;;0.20;94.60;;;;;;5094268;28;20504;-49
2021/03/07 03:13:52;;;;;;;6.40;5.47;;;0.20;94.70;;;;;;5094967;28;20400;-52
2021/03/07 03:16:26;;;;;;;7.20;5.80;;;0.10;94.70;;;;;;5094702;28;20971;-48
2021/03/07 03:18:52;;;;;;;6.97;5.53;;;0.10;94.80;;;;;;5094659;28;20813;-53
2021/03/07 03:21:17;;;;;;;8.70;5.80;;;0.10;94.80;;;;;;5094887;28;20476;-54
2021/03/07 03:23:47;;;;;;;7.67;5.77;;;0.10;95.20;;;;;;5094728;28;20802;-55
2021/03/07 03:26:13;;;;;;;7.57;5.30;;;0.00;94.90;;;;;;5100635;28;20549;-48
2021/03/07 03:28:39;;;;;;;9.47;5.93;;;0.00;95.20;;;;;;5100019;28;20411;-52
2021/03/07 03:31:05;;;;;;;6.40;5.43;;;-0.10;95.30;;;;;;5100929;28;20185;-52
2021/03/07 03:33:30;;;;;;;7.80;5.60;;;-0.10;95.40;;;;;;5101720;28;20403;-51
2021/03/07 03:35:56;;;;;;;6.80;5.73;;;-0.10;95.60;;;;;;5101579;28;20423;-56
2021/03/07 03:38:39;;;;;;;7.50;5.77;;;-0.10;95.60;;;;;;5100731;28;20310;-56
2021/03/07 03:41:05;;;;;;;6.73;5.23;;;-0.10;95.60;;;;;;5101418;28;20518;-53
2021/03/07 03:43:32;;;;;;;6.30;5.60;;;-0.10;95.60;;;;;;5101327;28;20790;-52
2021/03/07 03:46:01;;;;;;;7.73;5.70;;;-0.10;95.70;;;;;;5100854;28;20427;-51
2021/03/07 03:48:32;;;;;;;6.83;5.57;;;-0.10;95.50;;;;;;5084266;28;20412;-51
2021/03/07 03:50:59;;;;;;;7.67;5.80;;;-0.10;95.10;;;;;;5080493;28;20443;-52
2021/03/07 03:53:25;;;;;;;8.13;5.53;;;-0.10;94.90;;;;;;5080140;28;20491;-48
2021/03/07 03:55:53;;;;;;;6.83;5.37;;;-0.10;95.10;;;;;;5081430;28;20438;-54
2021/03/07 03:58:25;;;;;;;7.30;5.80;;;-0.20;95.20;;;;;;5080903;28;20401;-51
2021/03/07 04:00:53;;;;;;;7.57;5.80;;;-0.20;95.30;;;;;;5080294;28;20426;-53
2021/03/07 04:03:19;;;;;;;7.07;5.80;;;-0.20;95.30;;;;;;5080600;28;20466;-53
2021/03/07 04:05:46;;;;;;;7.63;6.10;;;-0.20;95.40;;;;;;5080332;28;20460;-53
2021/03/07 04:08:16;;;;;;;8.17;5.40;;;-0.20;95.60;;;;;;5080623;28;20435;-54
2021/03/07 04:10:43;;;;;;;8.03;6.10;;;-0.20;95.50;;;;;;5081683;28;20577;-48
2021/03/07 04:13:11;;;;;;;7.93;6.33;;;-0.30;95.70;;;;;;5100028;28;20461;-55
2021/03/07 04:15:39;;;;;;;7.57;6.07;;;-0.30;95.90;;;;;;5099976;28;20756;-48
2021/03/07 04:18:07;;;;;;;7.17;5.80;;;-0.40;96.00;;;;;;5100249;28;20737;-49
2021/03/07 04:20:33;;;;;;;7.70;6.33;;;-0.50;96.30;;;;;;5100340;28;20403;-48
2021/03/07 04:22:58;;;;;;;7.10;5.77;;;-0.40;96.40;;;;;;5101030;28;20456;-52
2021/03/07 04:25:24;;;;;;;8.20;5.80;;;-0.50;96.40;;;;;;5100779;28;20428;-53
2021/03/07 04:27:51;;;;;;;7.93;5.77;;;-0.50;96.40;;;;;;5100936;28;20166;-54
2021/03/07 04:30:18;;;;;;;7.60;6.00;;;-0.50;96.20;;;;;;5100432;28;20479;-51
2021/03/07 04:32:44;;;;;;;6.97;5.17;;;-0.40;96.30;;;;;;5099167;28;20492;-51
2021/03/07 04:35:12;;;;;;;9.40;5.63;;;-0.40;96.20;;;;;;5100232;28;20903;-48
2021/03/07 04:37:38;;;;;;;6.87;5.63;;;-0.50;96.10;;;;;;5096506;28;20400;-56
2021/03/07 04:40:05;;;;;;;7.40;5.63;;;-0.40;96.10;;;;;;5097087;28;20457;-53
2021/03/07 04:42:31;;;;;;;6.47;5.27;;;-0.40;96.10;;;;;;5095584;28;20181;-50
2021/03/07 04:44:56;;;;;;;7.67;5.33;;;-0.40;96.00;;;;;;5097324;28;20431;-51
2021/03/07 04:47:22;;;;;;;6.53;5.20;;;-0.40;95.90;;;;;;5097330;28;20216;-50
2021/03/07 04:49:47;;;;;;;7.93;5.93;;;-0.50;95.90;;;;;;5096846;28;20201;-48
2021/03/07 04:52:13;;;;;;;6.83;5.67;;;-0.40;96.10;;;;;;5096262;28;20186;-49
2021/03/07 04:54:38;;;;;;;8.07;6.00;;;-0.50;95.80;;;;;;5097051;28;20717;-50
2021/03/07 04:57:05;;;;;;;7.50;5.77;;;-0.60;96.00;;;;;;5095711;28;20178;-49
2021/03/07 04:59:31;;;;;;;7.77;6.17;;;-0.70;96.00;;;;;;5096495;28;20170;-50
2021/03/07 05:01:57;;;;;;;6.87;5.70;;;-0.70;95.80;;;;;;5096518;28;20412;-56
2021/03/07 05:04:23;;;;;;;7.77;5.40;;;-0.70;96.20;;;;;;5096616;28;20416;-52
2021/03/07 05:06:49;;;;;;;7.97;5.80;;;-0.70;96.10;;;;;;5096273;28;20624;-55
2021/03/07 05:09:14;;;;;;;8.03;6.13;;;-0.60;96.30;;;;;;5095262;28;20515;-54
2021/03/07 05:11:40;;;;;;;9.17;5.93;;;-0.70;96.20;;;;;;5095667;28;20562;-56
2021/03/07 05:14:06;;;;;;;7.63;5.77;;;-0.70;96.30;;;;;;5094394;28;20193;-52
2021/03/07 05:16:33;;;;;;;7.87;6.03;;;-0.70;96.20;;;;;;5095883;28;20247;-55
2021/03/07 05:18:59;;;;;;;8.30;6.33;;;-0.70;96.00;;;;;;5096597;28;20178;-53
2021/03/07 05:21:25;;;;;;;8.53;5.50;;;-0.80;95.50;;;;;;5096312;28;20414;-50
2021/03/07 05:23:52;;;;;;;6.43;5.27;;;-0.80;95.60;;;;;;5096387;28;20884;-54
2021/03/07 05:26:18;;;;;;;7.30;6.10;;;-0.80;96.10;;;;;;5096825;28;20431;-48
2021/03/07 05:28:43;;;;;;;7.47;5.67;;;-0.80;96.20;;;;;;5096854;28;20418;-53
2021/03/07 05:31:09;;;;;;;7.37;5.67;;;-0.80;96.20;;;;;;5096230;28;20205;-47
2021/03/07 05:33:35;;;;;;;7.03;5.23;;;-0.80;96.20;;;;;;5096002;28;20254;-57
2021/03/07 05:36:00;;;;;;;7.40;5.50;;;-0.80;96.20;;;;;;5096473;28;20225;-53
2021/03/07 05:38:26;;;;;;;7.00;5.50;;;-0.80;96.20;;;;;;5096008;28;20261;-52
2021/03/07 05:40:52;;;;;;;7.37;6.23;;;-0.80;95.90;;;;;;5096622;28;20178;-50
2021/03/07 05:43:17;;;;;;;7.73;5.87;;;-0.80;95.70;;;;;;5095499;28;20507;-53
2021/03/07 05:45:44;;;;;;;8.10;5.57;;;-0.80;95.70;;;;;;5096033;28;20198;-49
2021/03/07 05:48:10;;;;;;;8.43;6.50;;;-0.70;95.70;;;;;;5095967;28;20178;-52
2021/03/07 05:50:36;;;;;;;8.80;6.53;;;-0.70;96.00;;;;;;5095800;28;20452;-53
2021/03/07 05:53:02;;;;;;;8.17;6.10;;;-0.80;96.10;;;;;;5095706;28;20235;-50
2021/03/07 05:55:29;;;;;;;9.10;6.57;;;-0.90;95.70;;;;;;5095107;28;20755;-56
2021/03/07 05:57:59;;;;;;;8.67;6.30;;;-0.90;95.70;;;;;;5096879;28;20186;-49
2021/03/07 06:00:25;;;;;;;7.60;6.07;;;-0.80;95.90;;;;;;5095846;28;20404;-52
2021/03/07 06:02:51;;;;;;;8.63;6.20;;;-0.80;95.90;;;;;;5095422;28;20412;-53
2021/03/07 06:05:17;;;;;;;7.63;5.30;;;-0.80;96.10;;;;;;5095443;28;20485;-50
2021/03/07 06:07:44;;;;;;;8.13;5.63;;;-0.80;96.40;;;;;;5096046;28;20197;-56
2021/03/07 06:10:13;;;;;;;6.63;5.17;;;-0.80;96.40;;;;;;5095289;28;20289;-54
2021/03/07 06:12:40;;;;;;;6.37;4.67;;;-0.80;96.50;;;;;;5095207;28;20460;-54
2021/03/07 06:15:08;;;;;;;7.83;5.27;;;-0.70;96.60;;;;;;5095395;28;20521;-51
2021/03/07 06:17:45;;;;;;;6.57;5.10;;;-0.70;96.50;;;;;;5095349;28;20408;-50
2021/03/07 06:20:19;;;;;;;5.80;4.70;;;-0.70;96.70;;;;;;5095388;28;20443;-54
2021/03/07 06:23:02;;;;;;;7.57;5.20;;;-0.60;96.80;;;;;;5094752;28;20888;-49
2021/03/07 06:25:29;;;;;;;7.60;4.80;;;-0.60;96.90;;;;;;5094983;28;20760;-57
2021/03/07 06:27:55;;;;;;;8.70;5.20;;;-0.50;97.00;;;;;;5095817;28;20412;-53
2021/03/07 06:30:30;;;;;;;8.03;5.30;;;-0.50;97.20;;;;;;5095224;28;20466;-49
2021/03/07 06:32:57;;;;;;;6.43;5.30;;;-0.40;97.20;;;;;;5094608;28;20212;-52
2021/03/07 06:35:28;;;;;;;7.20;5.73;;;-0.30;97.40;;;;;;5094931;28;20420;-54
2021/03/07 06:38:04;;;;;;;6.53;5.20;;;-0.30;97.30;;;;;;5096271;28;20404;-57
2021/03/07 06:40:34;;;;;;;7.00;4.90;;;-0.20;97.40;;;;;;5096704;28;20443;-54
2021/03/07 06:43:02;;;;;;;5.93;5.17;;;-0.20;97.60;;;;;;5082995;28;20420;-52
2021/03/07 06:45:44;;;;;;;6.27;4.63;;;-0.10;97.80;;;;;;5086013;28;20531;-52
2021/03/07 06:48:10;;;;;;;6.83;5.23;;;0.00;97.80;;;;;;5104815;28;20419;-49
2021/03/07 06:50:50;;;;;;;9.57;6.37;;;0.10;97.70;;;;;;5095858;28;20451;-49
2021/03/07 06:53:37;;;;;;;8.50;6.53;;;0.20;97.40;;;;;;5110854;28;20462;-53
2021/03/07 06:56:06;;;;;;;8.63;6.87;;;0.30;97.80;;;;;;5086861;28;20437;-55
2021/03/07 06:58:32;;;;;;;7.30;6.50;;;0.40;97.60;;;;;;5081671;28;20423;-56
2021/03/07 07:00:58;;;;;;;7.60;6.30;;;0.40;97.60;;;;;;5106507;28;21003;-50
2021/03/07 07:03:25;;;;;;;7.07;5.73;;;0.50;97.70;;;;;;5091960;28;20420;-51
2021/03/07 07:05:53;;;;;;;7.37;5.60;;;0.70;97.60;;;;;;5078205;28;20460;-50
2021/03/07 07:08:42;;;;;;;8.17;6.40;;;0.80;97.60;;;;;;5078837;28;20510;-49
2021/03/07 07:11:08;;;;;;;14.33;9.10;;;1.00;96.90;;;;;;5078127;28;21137;-48
2021/03/07 07:13:48;;;;;;;14.10;8.63;;;1.10;95.90;;;;;;5076779;28;20524;-59
2021/03/07 07:16:14;;;;;;;7.47;5.93;;;1.20;95.80;;;;;;5073360;28;20251;-48
2021/03/07 07:18:43;;;;;;;6.97;4.83;;;1.20;95.70;;;;;;5084158;28;20420;-53
2021/03/07 07:21:10;;;;;;;6.63;4.90;;;1.20;95.50;;;;;;5096426;28;20431;-53
2021/03/07 07:23:37;;;;;;;6.40;4.67;;;1.20;95.60;;;;;;5094135;28;20427;-53
2021/03/07 07:26:04;;;;;;;4.97;4.17;;;1.40;95.50;;;;;;5090953;28;20459;-52
2021/03/07 07:28:30;;;;;;;5.67;4.93;;;1.60;95.00;;;;;;5093260;28;20441;-48
2021/03/07 07:31:12;;;;;;;5.93;4.40;;;1.70;95.00;;;;;;5089521;28;20456;-51
2021/03/07 07:33:55;;;;;;;5.53;4.40;;;1.80;95.20;;;;;;5084443;28;20452;-53
2021/03/07 07:36:44;;;;;;;4.90;4.37;;;2.00;94.50;;;;;;5069439;28;20798;-55
2021/03/07 07:39:12;;;;;;;5.97;4.40;;;2.20;94.20;;;;;;5088980;28;20471;-54
2021/03/07 07:41:39;;;;;;;5.63;4.17;;;2.30;94.00;;;;;;5088650;28;20416;-55
2021/03/07 07:44:11;;;;;;;5.57;4.70;;;2.40;93.40;;;;;;5088447;28;20549;-50
2021/03/07 07:46:55;;;;;;;6.50;4.80;;;2.40;92.90;;;;;;5088828;28;20512;-53
2021/03/07 07:49:43;;;;;;;5.97;4.20;;;2.50;92.70;;;;;;5087338;28;20449;-58
2021/03/07 07:52:24;;;;;;;5.00;4.17;;;2.60;92.40;;;;;;5068124;28;20513;-52
2021/03/07 07:54:55;;;;;;;5.57;4.70;;;2.80;92.10;;;;;;5070124;28;20451;-54
2021/03/07 07:57:34;;;;;;;5.13;4.17;;;3.00;92.50;;;;;;5083500;28;20530;-48
2021/03/07 08:00:01;;;;;;;5.50;4.33;;;3.20;91.90;;;;;;5089015;28;20422;-49
2021/03/07 08:02:51;;;;;;;5.20;4.47;;;3.40;91.40;;;;;;5088167;28;20221;-54
2021/03/07 08:05:24;;;;;;;5.40;4.40;;;3.60;90.90;;;;;;5087353;28;20194;-58
2021/03/07 08:08:24;;;;;;;4.73;4.23;;;3.60;90.90;;;;;;5088930;28;21026;-55
2021/03/07 08:10:51;;;;;;;5.00;4.10;;;3.80;91.50;;;;;;5071807;28;20226;-51
2021/03/07 08:13:36;;;;;;;5.83;4.30;;;3.90;90.50;;;;;;5093281;28;20663;-53
2021/03/07 08:16:05;;;;;;;5.10;4.43;;;4.20;90.40;;;;;;5094284;28;20189;-49
2021/03/07 08:18:53;;;;;;;5.30;4.43;;;4.50;90.50;;;;;;5094781;28;20262;-54
2021/03/07 08:21:20;;;;;;;5.67;4.37;;;4.70;88.90;;;;;;5080901;28;20187;-53
2021/03/07 08:24:06;;;;;;;5.30;4.37;;;4.80;87.50;;;;;;5076678;28;20170;-51
2021/03/07 08:26:44;;;;;;;5.77;4.50;;;5.00;88.30;;;;;;5076883;28;20198;-57
2021/03/07 08:29:38;;;;;;;4.50;4.10;;;5.20;86.40;;;;;;5077190;28;20186;-49
2021/03/07 08:32:24;;;;;;;5.87;4.43;;;5.20;85.90;;;;;;5108128;28;20197;-49
2021/03/07 08:34:50;;;;;;;6.03;4.53;;;5.50;85.00;;;;;;5116598;28;20208;-48
2021/03/07 08:37:16;;;;;;;5.13;4.40;;;5.60;84.00;;;;;;5117247;28;20172;-56
2021/03/07 08:39:41;;;;;;;4.77;3.97;;;5.70;83.70;;;;;;5117864;28;20169;-48
2021/03/07 08:42:07;;;;;;;5.80;4.50;;;5.80;80.00;;;;;;5116659;28;20178;-49
2021/03/07 08:44:33;;;;;;;5.23;4.33;;;6.00;77.70;;;;;;5101458;28;20186;-51
2021/03/07 08:46:59;;;;;;;4.87;4.30;;;6.10;79.30;;;;;;5076468;28;20171;-50
2021/03/07 08:49:27;;;;;;;4.97;4.17;;;6.20;79.50;;;;;;5076726;28;20667;-48
2021/03/07 08:52:05;;;;;;;4.03;3.63;;;6.40;77.10;;;;;;5074745;28;20226;-53
2021/03/07 08:54:34;;;;;;;4.47;3.87;;;6.90;79.20;;;;;;5076764;28;20177;-53
2021/03/07 08:57:05;;;;;;;4.07;3.67;;;7.30;76.90;;;;;;5076776;28;20181;-47
2021/03/07 08:59:33;;;;;;;4.20;3.73;;;7.70;71.40;;;;;;5076377;28;20171;-51
2021/03/07 09:02:00;;;;;;;4.53;4.07;;;8.30;72.00;;;;;;5075413;28;20339;-59
2021/03/07 09:04:32;;;;;;;5.17;3.97;;;8.40;69.40;;;;;;5075579;28;20174;-53
2021/03/07 09:06:58;;;;;;;5.27;3.80;;;8.80;70.90;;;;;;5075203;28;20631;-56
2021/03/07 09:09:24;;;;;;;4.23;3.80;;;9.50;67.80;;;;;;5075193;28;20189;-47
2021/03/07 09:11:57;;;;;;;4.07;3.50;;;9.80;62.20;;;;;;5087213;28;20200;-46
2021/03/07 09:14:37;;;;;;;5.10;3.83;;;10.40;61.60;;;;;;5095372;28;20312;-47
2021/03/07 09:17:05;;;;;;;4.90;3.63;;;11.10;59.30;;;;;;5095700;28;20186;-50
2021/03/07 09:19:36;;;;;;;4.60;3.87;;;11.80;55.70;;;;;;5095499;28;20534;-55
2021/03/07 09:22:17;;;;;;;3.83;3.50;;;13.00;56.20;;;;;;5094794;28;20231;-47
2021/03/07 09:24:56;;;;;;;3.83;3.40;;;14.20;51.50;;;;;;5095685;28;20204;-48
2021/03/07 09:27:24;;;;;;;3.77;3.30;;;15.30;48.80;;;;;;5096076;28;20259;-47
2021/03/07 09:30:04;;;;;;;4.20;3.40;;;15.90;47.00;;;;;;5095700;28;20185;-49
2021/03/07 09:32:34;;;;;;;3.30;3.00;;;16.80;47.30;;;;;;5095603;28;20306;-55
2021/03/07 09:35:15;;;;;;;5.43;3.30;;;18.20;46.10;;;;;;5095831;28;20219;-55
2021/03/07 09:37:41;;;;;;;3.35;3.05;;;19.60;40.00;;;;;;5095456;28;20533;-47
2021/03/07 09:40:11;;;;;;;3.22;2.92;;;20.60;39.90;;;;;;5095747;28;20610;-50
2021/03/07 09:42:38;;;;;;;2.67;2.42;;;21.90;37.30;;;;;;5094926;28;20170;-47
2021/03/07 09:45:06;;;;;;;3.38;3.08;;;24.10;36.10;;;;;;5093848;28;20280;-49
2021/03/07 09:47:31;;;;;;;3.20;2.90;;;24.50;32.50;;;;;;5095141;28;20182;-55
2021/03/07 09:49:57;;;;;;;3.08;2.78;;;24.60;34.00;;;;;;5095417;28;20169;-51
2021/03/07 09:52:23;;;;;;;3.38;2.55;;;25.00;32.50;;;;;;5095439;28;20220;-54
2021/03/07 09:54:56;;;;;;;3.17;2.65;;;26.90;30.90;;;;;;5095113;28;20247;-55
2021/03/07 09:57:22;;;;;;;4.13;3.05;;;28.50;28.50;;;;;;5095968;28;20174;-49
2021/03/07 09:59:49;;;;;;;2.78;2.58;;;30.40;28.10;;;;;;5094987;28;20181;-55
2021/03/07 10:02:15;;;;;;;2.92;2.60;;;32.20;26.90;;;;;;5094903;28;20208;-48
2021/03/07 10:04:45;;;;;;;2.50;2.30;;;33.40;24.80;;;;;;5094856;28;20217;-50
2021/03/07 10:07:17;;;;;;;4.68;2.80;;;34.20;25.10;;;;;;5094605;28;20542;-55
2021/03/07 10:10:10;;;;;;;2.72;2.53;;;35.80;23.50;;;;;;5094764;28;20220;-58
2021/03/07 10:12:55;;;;;;;2.75;2.55;;;37.10;23.20;;;;;;5094889;28;20166;-48
2021/03/07 10:15:33;;;;;;;3.10;2.40;;;38.10;21.70;;;;;;5094726;28;20268;-53
2021/03/07 10:18:18;;;;;;;2.60;2.40;;;37.60;22.10;;;;;;5095558;28;20169;-55
2021/03/07 10:20:48;;;;;;;3.10;2.90;;;38.10;21.10;;;;;;5094879;28;20181;-58
2021/03/07 10:23:14;;;;;;;2.63;2.42;;;37.70;20.90;;;;;;5094206;28;20185;-51
2021/03/07 10:25:42;;;;;;;2.58;2.38;;;36.90;20.70;;;;;;5094684;28;20209;-54
2021/03/07 10:28:10;;;;;;;2.70;2.50;;;37.00;20.70;;;;;;5094542;28;20567;-55
2021/03/07 10:30:44;;;;;;;2.70;2.50;;;36.30;20.50;;;;;;5095050;28;20256;-50
2021/03/07 10:33:23;;;;;;;3.03;2.83;;;36.40;20.30;;;;;;5094546;28;20181;-55
2021/03/07 10:36:05;;;;;;;2.70;2.50;;;35.60;20.30;;;;;;5093778;28;20188;-54
2021/03/07 10:38:32;;;;;;;3.00;2.80;;;34.60;21.80;;;;;;5094412;28;20578;-48
2021/03/07 10:40:59;;;;;;;3.45;2.65;;;33.70;21.60;;;;;;5092772;28;20224;-51
2021/03/07 10:43:25;;;;;;;2.95;2.65;;;33.50;21.40;;;;;;5094250;28;20174;-57
2021/03/07 10:45:51;;;;;;;3.13;2.83;;;33.60;22.00;;;;;;5094125;28;20220;-58
2021/03/07 10:48:17;;;;;;;2.90;2.67;;;33.90;21.30;;;;;;5094166;28;20178;-58
2021/03/07 10:50:45;;;;;;;2.97;2.67;;;34.40;22.30;;;;;;5094115;28;20246;-54
2021/03/07 10:53:11;;;;;;;2.78;2.58;;;34.70;21.90;;;;;;5094373;28;20181;-50
2021/03/07 10:55:37;;;;;;;2.47;2.28;;;33.90;22.50;;;;;;5093720;28;20273;-50
2021/03/07 10:58:03;;;;;;;2.83;2.63;;;35.10;21.90;;;;;;5094544;28;20509;-57
2021/03/07 11:00:29;;;;;;;2.60;2.40;;;37.00;21.20;;;;;;5094394;28;20208;-50
2021/03/07 11:02:55;;;;;;;2.72;2.53;;;36.90;20.70;;;;;;5094191;28;20660;-53
2021/03/07 11:05:22;;;;;;;2.85;2.63;;;36.70;20.70;;;;;;5091838;28;20200;-56
2021/03/07 11:07:48;;;;;;;3.13;2.33;;;35.50;21.10;;;;;;5091950;28;20710;-58
2021/03/07 11:10:16;;;;;;;3.25;2.80;;;35.40;20.70;;;;;;5091654;28;20603;-57
2021/03/07 11:12:42;;;;;;;2.72;2.53;;;36.60;20.90;;;;;;5091792;28;20170;-48
2021/03/07 11:15:10;;;;;;;2.60;2.40;;;36.70;20.10;;;;;;5091641;28;20201;-50
2021/03/07 11:17:36;;;;;;;2.60;2.40;;;35.40;20.90;;;;;;5091880;28;20166;-56
2021/03/07 11:20:03;;;;;;;2.78;2.58;;;33.90;21.60;;;;;;5093931;28;20227;-57
2021/03/07 11:22:28;;;;;;;3.15;2.85;;;32.80;23.00;;;;;;5093764;28;20648;-56
2021/03/07 11:24:54;;;;;;;2.90;2.60;;;31.40;23.10;;;;;;5094382;28;20193;-57
2021/03/07 11:27:20;;;;;;;2.60;2.38;;;31.40;23.10;;;;;;5094413;28;20170;-57
2021/03/07 11:29:46;;;;;;;3.17;2.88;;;31.20;23.50;;;;;;5094135;28;20162;-57
2021/03/07 11:32:11;;;;;;;2.72;2.53;;;30.20;23.60;;;;;;5093960;28;20182;-54
2021/03/07 11:34:37;;;;;;;3.00;2.80;;;30.50;23.80;;;;;;5093715;28;20177;-57
2021/03/07 11:37:03;;;;;;;3.05;2.85;;;29.50;25.10;;;;;;5093997;28;20189;-57
2021/03/07 11:39:29;;;;;;;3.30;3.00;;;29.20;25.60;;;;;;5094294;28;20182;-55
2021/03/07 11:41:54;;;;;;;2.85;2.65;;;29.50;24.50;;;;;;5093814;28;20330;-52
2021/03/07 11:44:20;;;;;;;4.03;3.33;;;29.40;26.30;;;;;;5094007;28;20198;-55
2021/03/07 11:46:45;;;;;;;3.42;3.20;;;29.90;25.40;;;;;;5097076;28;20185;-57
2021/03/07 11:49:11;;;;;;;3.00;2.80;;;29.80;23.90;;;;;;5097891;28;20182;-56
2021/03/07 11:51:36;;;;;;;3.03;2.72;;;31.40;23.70;;;;;;5097768;28;20704;-54
2021/03/07 11:54:03;;;;;;;3.00;2.80;;;32.90;23.80;;;;;;5098497;28;20170;-48
2021/03/07 11:56:29;;;;;;;3.13;2.92;;;32.20;23.60;;;;;;5097642;28;20277;-57
2021/03/07 11:58:55;;;;;;;3.00;2.80;;;33.70;23.40;;;;;;5097755;28;20181;-52
2021/03/07 12:01:21;;;;;;;3.05;2.78;;;33.10;23.10;;;;;;5097746;28;20310;-54
2021/03/07 12:03:46;;;;;;;2.78;2.58;;;30.60;24.50;;;;;;5097744;28;20166;-55
2021/03/07 12:06:12;;;;;;;2.97;2.75;;;30.30;25.20;;;;;;5098077;28;20197;-53
2021/03/07 12:08:37;;;;;;;3.42;3.13;;;29.20;24.80;;;;;;5097433;28;20193;-53
2021/03/07 12:11:03;;;;;;;3.10;2.80;;;29.10;25.30;;;;;;5096876;28;20220;-57
2021/03/07 12:13:29;;;;;;;3.22;2.90;;;29.50;24.90;;;;;;5097579;28;20225;-55
2021/03/07 12:15:54;;;;;;;2.80;2.60;;;28.70;26.30;;;;;;5097638;28;20197;-56
2021/03/07 12:18:20;;;;;;;3.30;3.00;;;29.10;26.60;;;;;;5097241;28;20174;-58
2021/03/07 12:20:45;;;;;;;2.65;2.45;;;29.50;25.40;;;;;;5096974;28;20198;-48
2021/03/07 12:23:11;;;;;;;3.00;2.80;;;29.60;26.10;;;;;;5097591;28;20172;-58
2021/03/07 12:25:37;;;;;;;2.63;2.42;;;29.00;26.90;;;;;;5097066;28;20182;-58
2021/03/07 12:28:02;;;;;;;3.97;2.85;;;30.80;26.20;;;;;;5096863;28;20235;-56
2021/03/07 12:30:28;;;;;;;3.00;2.80;;;29.50;25.60;;;;;;5097575;28;20202;-54
2021/03/07 12:32:54;;;;;;;3.15;2.88;;;27.50;27.30;;;;;;5097159;28;20177;-49
2021/03/07 12:35:19;;;;;;;3.53;2.38;;;26.60;28.50;;;;;;5096829;28;20211;-58
2021/03/07 12:37:45;;;;;;;2.70;2.50;;;27.70;26.80;;;;;;5096728;28;20178;-57
2021/03/07 12:40:11;;;;;;;2.75;2.50;;;29.50;25.20;;;;;;5096957;28;20177;-48
2021/03/07 12:42:36;;;;;;;2.72;2.53;;;31.30;24.60;;;;;;5096836;28;20651;-50
2021/03/07 12:45:03;;;;;;;4.03;2.60;;;33.00;24.30;;;;;;5097013;28;20190;-50
2021/03/07 12:47:29;;;;;;;2.72;2.53;;;34.40;23.60;;;;;;5096872;28;20185;-54
2021/03/07 12:49:54;;;;;;;2.53;2.33;;;34.00;23.30;;;;;;5096608;28;20218;-58
2021/03/07 12:52:20;;;;;;;2.30;2.20;;;33.90;23.20;;;;;;5096210;28;20629;-58
2021/03/07 12:54:46;;;;;;;2.72;2.53;;;34.10;23.60;;;;;;5096528;28;20649;-48
2021/03/07 12:57:11;;;;;;;3.03;2.67;;;34.40;23.60;;;;;;5095583;28;20170;-56